createdAt,value
2018-04-27T00:00:10.839Z,14.64
2018-04-27T00:06:01.737Z,11.27
2018-04-27T00:11:52.622Z,13.2
2018-04-27T00:17:43.552Z,14.94
2018-04-27T00:23:34.407Z,11.03
2018-04-27T00:29:25.312Z,11.06
2018-04-27T00:35:16.203Z,13.68
2018-04-27T00:41:07.150Z,12.49
2018-04-27T00:46:57.975Z,17.25
2018-04-27T00:52:48.854Z,14.52
2018-04-27T00:58:39.774Z,12.75
2018-04-27T01:04:30.629Z,12.66
2018-04-27T01:10:21.530Z,12.29
2018-04-27T01:16:12.451Z,15.04
2018-04-27T01:22:03.354Z,19.84
2018-04-27T01:27:54.230Z,13.11
2018-04-27T01:33:45.136Z,12.64
2018-04-27T01:39:35.966Z,16.45
2018-04-27T01:45:26.881Z,11.7
2018-04-27T01:51:17.777Z,9.48
2018-04-27T01:57:08.671Z,9.12
2018-04-27T02:02:59.540Z,13.54
2018-04-27T02:08:50.403Z,14.92
2018-04-27T02:14:41.358Z,12.29
2018-04-27T02:20:32.190Z,10.49
2018-04-27T02:26:23.090Z,14.04
2018-04-27T02:32:13.952Z,12.23
2018-04-27T02:38:04.839Z,14.07
2018-04-27T02:43:55.711Z,16.38
2018-04-27T02:49:46.588Z,14.21
2018-04-27T02:55:37.536Z,15.74
2018-04-27T03:01:28.376Z,8.14
2018-04-27T03:07:19.249Z,12.73
2018-04-27T03:13:10.194Z,9.84
2018-04-27T03:19:01.054Z,10.71
2018-04-27T03:24:51.874Z,11.73
2018-04-27T03:30:42.773Z,15.02
2018-04-27T03:36:33.684Z,11.18
2018-04-27T03:42:24.520Z,10.8
2018-04-27T03:48:15.425Z,10.53
2018-04-27T03:54:06.368Z,14.31
2018-04-27T03:59:57.184Z,11.86
2018-04-27T04:05:48.103Z,10.49
2018-04-27T04:11:39.065Z,10.91
2018-04-27T04:17:29.834Z,12.13
2018-04-27T04:23:20.705Z,11.91
2018-04-27T04:29:11.577Z,9.79
2018-04-27T04:35:02.459Z,9.72
2018-04-27T04:40:53.368Z,12.43
2018-04-27T04:46:44.243Z,9.86
2018-04-27T04:52:35.154Z,11.52
2018-04-27T04:58:26.001Z,12.75
2018-04-27T05:04:16.912Z,19.23
2018-04-27T05:10:07.773Z,8.19
2018-04-27T05:15:58.627Z,13.82
2018-04-27T05:21:49.552Z,16.11
2018-04-27T05:27:40.408Z,22.05
2018-04-27T05:33:31.264Z,21.32
2018-04-27T05:39:22.143Z,29.62
2018-04-27T05:45:13.037Z,14.28
2018-04-27T05:51:03.968Z,16.4
2018-04-27T05:56:54.790Z,18.66
2018-04-27T06:02:45.687Z,17.44
2018-04-27T06:08:36.588Z,19.5
2018-04-27T06:14:27.547Z,16.42
2018-04-27T06:20:18.364Z,22.2
2018-04-27T06:26:09.275Z,18.13
2018-04-27T06:32:00.102Z,17.79
2018-04-27T06:37:51.002Z,17.59
2018-04-27T06:43:41.841Z,21.5
2018-04-27T06:49:32.776Z,16.67
2018-04-27T06:55:23.631Z,22.11
2018-04-27T07:01:14.528Z,15.35
2018-04-27T07:07:05.405Z,16.55
2018-04-27T07:12:56.255Z,16.63
2018-04-27T07:18:47.145Z,22.86
2018-04-27T07:30:28.953Z,19.37
2018-04-27T07:36:19.795Z,20.77
2018-04-27T07:42:10.651Z,22.4
2018-04-27T07:48:01.585Z,24.54
2018-04-27T07:53:52.470Z,26.84
2018-04-27T07:59:43.347Z,20.83
2018-04-27T08:05:34.225Z,22.02
2018-04-27T08:11:25.193Z,25.06
2018-04-27T08:17:15.993Z,24.46
2018-04-27T08:23:06.851Z,24.73
2018-04-27T08:28:57.813Z,24.25
2018-04-27T08:34:48.662Z,27.52
2018-04-27T08:40:39.520Z,42.66
2018-04-27T08:46:30.390Z,27.92
2018-04-27T08:52:21.297Z,30.39
2018-04-27T08:58:12.257Z,34.26
2018-04-27T09:04:03.082Z,34.55
2018-04-27T09:09:53.949Z,36.8
2018-04-27T09:15:44.864Z,30.24
2018-04-27T09:21:35.805Z,32.6
2018-04-27T09:27:26.622Z,27.95
2018-04-27T09:33:17.543Z,29.39
2018-04-27T09:39:08.391Z,34.11
2018-04-27T09:44:59.444Z,31.38
2018-04-27T09:50:50.242Z,34.03
2018-04-27T10:02:31.996Z,37.01
2018-04-27T10:08:22.876Z,31.99
2018-04-27T10:14:13.752Z,34.02
2018-04-27T10:20:04.649Z,48.91
2018-04-27T10:25:55.578Z,50.29
2018-04-27T10:31:46.456Z,36.75
2018-04-27T10:37:37.371Z,18.89
2018-04-27T10:43:28.255Z,20.11
2018-04-27T10:49:19.196Z,14.5
2018-04-27T10:55:10.147Z,16
2018-04-27T11:01:01.044Z,9.97
2018-04-27T11:06:51.910Z,8.14
2018-04-27T11:12:42.862Z,13.59
2018-04-27T11:18:33.763Z,10.3
2018-04-27T11:24:24.718Z,8.46
2018-04-27T11:30:15.657Z,11.58
2018-04-27T11:36:06.589Z,4.99
2018-04-27T11:41:57.497Z,6.87
2018-04-27T11:47:48.462Z,7.35
2018-04-27T11:59:53.117Z,6.39
2018-04-27T12:05:44.145Z,10.14
2018-04-27T12:11:35.127Z,11.27
2018-04-27T12:19:44.367Z,6.89
2018-04-27T12:25:35.332Z,12.31
2018-04-27T12:37:28.466Z,12.91
2018-04-27T12:43:19.477Z,8.31
2018-04-27T12:49:10.407Z,12.09
2018-04-27T13:00:52.356Z,10.92
2018-04-27T13:06:43.327Z,13.19
2018-04-27T13:12:34.340Z,28.4
2018-04-27T13:18:25.247Z,19.17
2018-04-27T13:24:16.239Z,12.16
2018-04-27T13:30:07.217Z,11.61
2018-04-27T13:35:58.179Z,14.09
2018-04-27T13:41:49.170Z,13.1
2018-04-27T13:47:40.092Z,9.62
2018-04-27T13:53:31.082Z,12.22
2018-04-27T13:59:22.031Z,12.38
2018-04-27T14:05:13.050Z,9.22
2018-04-27T14:11:04.028Z,12.47
2018-04-27T14:16:54.964Z,8.7
2018-04-27T14:22:45.919Z,7.14
2018-04-27T14:28:36.927Z,11.05
2018-04-27T14:34:27.894Z,9.71
2018-04-27T14:40:18.806Z,9.25
2018-04-27T14:46:09.755Z,6.06
2018-04-27T14:52:00.687Z,9.24
2018-04-27T14:57:51.651Z,10.25
2018-04-27T15:03:42.603Z,19.19
2018-04-27T15:09:33.571Z,14.25
2018-04-27T15:15:24.569Z,13.64
2018-04-27T15:21:15.488Z,23.46
2018-04-27T15:27:06.379Z,10.08
2018-04-27T15:32:57.358Z,11.34
2018-04-27T15:38:48.380Z,10.8
2018-04-27T15:44:39.287Z,9.76
2018-04-27T15:50:30.204Z,8.69
2018-04-27T15:56:21.155Z,11.12
2018-04-27T16:02:12.080Z,10.72
2018-04-27T16:08:03.049Z,7.91
2018-04-27T16:13:54.006Z,7.72
2018-04-27T16:19:44.938Z,12.45
2018-04-27T16:25:35.957Z,15.58
2018-04-27T16:31:26.868Z,13.92
2018-04-27T16:37:17.744Z,18.05
2018-04-27T16:43:08.672Z,13.83
2018-04-27T16:48:59.624Z,11.33
2018-04-27T16:54:50.587Z,11.27
2018-04-27T17:00:41.530Z,16.24
2018-04-27T17:06:32.477Z,12.69
2018-04-27T17:12:23.413Z,12.1
2018-04-27T17:18:14.388Z,8.02
2018-04-27T17:24:05.224Z,8.85
2018-04-27T17:29:56.192Z,12.04
2018-04-27T17:35:47.126Z,14.26
2018-04-27T17:41:38.053Z,13.95
2018-04-27T17:47:29.052Z,11.33
2018-04-27T17:53:19.944Z,10.8
2018-04-27T17:59:10.845Z,11.76
2018-04-27T18:05:01.790Z,10.41
2018-04-27T18:10:52.722Z,10.42
2018-04-27T18:16:43.708Z,13.75
2018-04-27T18:22:34.576Z,12.2
2018-04-27T18:40:47.976Z,13.15
2018-04-27T18:46:38.917Z,14.55
2018-04-27T18:52:29.842Z,8.47
2018-04-27T18:58:20.784Z,8.06
2018-04-27T19:15:53.531Z,14.33
2018-04-27T19:21:44.419Z,11.92
2018-04-27T19:39:37.509Z,13.27
2018-04-27T19:51:14.150Z,11.73
2018-04-27T19:57:05.052Z,13.8
2018-04-27T20:02:56.006Z,13.02
2018-04-27T20:08:46.853Z,12.25
2018-04-27T20:14:37.837Z,12.99
2018-04-27T20:20:28.762Z,9.2
2018-04-27T20:26:19.630Z,13.64
2018-04-27T20:32:10.534Z,11.51
2018-04-27T20:38:01.456Z,13.69
2018-04-27T20:43:52.335Z,12.7
2018-04-27T20:49:43.268Z,11.57
2018-04-27T20:55:34.184Z,10.2
2018-04-27T21:01:25.108Z,8.65
2018-04-27T21:07:16.031Z,9.7
2018-04-27T21:13:06.921Z,10.99
2018-04-27T21:18:57.826Z,7.93
2018-04-27T21:24:48.745Z,8.71
2018-04-27T21:30:39.609Z,9.99
2018-04-27T21:36:30.588Z,8.71
2018-04-27T21:42:21.503Z,11.96
2018-04-27T21:48:12.345Z,11.25
2018-04-27T21:54:03.262Z,10.54
2018-04-27T21:59:54.171Z,7.61
2018-04-27T22:05:45.133Z,8.92
2018-04-27T22:11:36.018Z,14.66
2018-04-27T22:17:26.881Z,12.59
2018-04-27T22:23:17.846Z,8.85
2018-04-27T22:29:08.723Z,15.75
2018-04-27T22:34:59.604Z,7.67
2018-04-27T22:40:50.527Z,10.57
2018-04-27T22:46:41.393Z,10.39
2018-04-27T22:52:32.360Z,12.58
2018-04-27T22:58:23.255Z,14.88
2018-04-27T23:04:14.146Z,9.82
2018-04-27T23:10:05.060Z,11.26
2018-04-27T23:15:55.943Z,10.21
2018-04-27T23:21:46.825Z,8.89
2018-04-27T23:27:37.764Z,11.21
2018-04-27T23:33:28.632Z,12.06
2018-04-27T23:39:19.519Z,12.31
2018-04-27T23:45:10.461Z,11.88
2018-04-27T23:51:01.317Z,16.28
2018-04-27T23:56:52.288Z,9.55
